sensor_id;sensor_type;location;lat;lon;timestamp;temperature;humidity
4904;DHT22;2467;48.142;11.616;2023-06-14T00:00:14;17.20;46.20
4904;DHT22;2467;48.142;11.616;2023-06-14T00:00:47;17.20;46.30
4904;DHT22;2467;48.142;11.616;2023-06-14T00:01:20;17.20;46.20
4904;DHT22;2467;48.142;11.616;2023-06-14T00:01:53;17.20;46.10
4904;DHT22;2467;48.142;11.616;2023-06-14T00:02:25;17.20;46.20
4904;DHT22;2467;48.142;11.616;2023-06-14T00:02:58;17.20;46.20
4904;DHT22;2467;48.142;11.616;2023-06-14T00:03:31;17.20;46.30
4904;DHT22;2467;48.142;11.616;2023-06-14T00:04:03;17.20;46.40
4904;DHT22;2467;48.142;11.616;2023-06-14T00:04:38;17.20;46.50
4904;DHT22;2467;48.142;11.616;2023-06-14T00:05:11;17.20;46.70
4904;DHT22;2467;48.142;11.616;2023-06-14T00:05:44;17.20;46.90
4904;DHT22;2467;48.142;11.616;2023-06-14T00:06:18;17.10;46.90
4904;DHT22;2467;48.142;11.616;2023-06-14T00:06:50;17.10;47.00
4904;DHT22;2467;48.142;11.616;2023-06-14T00:07:34;17.10;47.10
4904;DHT22;2467;48.142;11.616;2023-06-14T00:08:06;17.00;47.10
4904;DHT22;2467;48.142;11.616;2023-06-14T00:08:38;17.00;47.20
4904;DHT22;2467;48.142;11.616;2023-06-14T00:09:12;17.00;47.30
4904;DHT22;2467;48.142;11.616;2023-06-14T00:09:44;17.00;47.40
4904;DHT22;2467;48.142;11.616;2023-06-14T00:10:16;17.00;47.50
4904;DHT22;2467;48.142;11.616;2023-06-14T00:10:49;16.90;47.50
4904;DHT22;2467;48.142;11.616;2023-06-14T00:11:21;16.80;47.60
4904;DHT22;2467;48.142;11.616;2023-06-14T00:11:53;16.80;47.80
4904;DHT22;2467;48.142;11.616;2023-06-14T00:12:26;16.80;48.00
4904;DHT22;2467;48.142;11.616;2023-06-14T00:12:57;16.80;48.20
4904;DHT22;2467;48.142;11.616;2023-06-14T00:13:31;16.70;48.20
4904;DHT22;2467;48.142;11.616;2023-06-14T00:14:04;16.70;48.30
4904;DHT22;2467;48.142;11.616;2023-06-14T00:14:36;16.70;48.40
4904;DHT22;2467;48.142;11.616;2023-06-14T00:15:08;16.70;48.30
4904;DHT22;2467;48.142;11.616;2023-06-14T00:15:42;16.70;48.40
4904;DHT22;2467;48.142;11.616;2023-06-14T00:16:14;16.70;48.40
4904;DHT22;2467;48.142;11.616;2023-06-14T00:16:48;16.70;48.60
4904;DHT22;2467;48.142;11.616;2023-06-14T00:17:21;16.70;48.70
4904;DHT22;2467;48.142;11.616;2023-06-14T00:17:54;16.70;48.80
4904;DHT22;2467;48.142;11.616;2023-06-14T00:18:26;16.70;48.80
4904;DHT22;2467;48.142;11.616;2023-06-14T00:19:01;16.70;48.80
4904;DHT22;2467;48.142;11.616;2023-06-14T00:19:34;16.70;48.80
4904;DHT22;2467;48.142;11.616;2023-06-14T00:20:09;16.70;48.70
4904;DHT22;2467;48.142;11.616;2023-06-14T00:20:42;16.70;48.70
4904;DHT22;2467;48.142;11.616;2023-06-14T00:21:14;16.80;48.70
4904;DHT22;2467;48.142;11.616;2023-06-14T00:21:46;16.70;48.70
4904;DHT22;2467;48.142;11.616;2023-06-14T00:22:20;16.70;48.70
4904;DHT22;2467;48.142;11.616;2023-06-14T00:22:54;16.70;48.80
4904;DHT22;2467;48.142;11.616;2023-06-14T00:23:26;16.70;48.80
4904;DHT22;2467;48.142;11.616;2023-06-14T00:23:59;16.70;48.90
4904;DHT22;2467;48.142;11.616;2023-06-14T00:24:32;16.70;48.90
4904;DHT22;2467;48.142;11.616;2023-06-14T00:25:04;16.80;49.00
4904;DHT22;2467;48.142;11.616;2023-06-14T00:25:54;16.80;49.10
4904;DHT22;2467;48.142;11.616;2023-06-14T00:26:26;16.80;49.20
4904;DHT22;2467;48.142;11.616;2023-06-14T00:26:58;16.80;49.20
4904;DHT22;2467;48.142;11.616;2023-06-14T00:27:31;16.80;49.20
4904;DHT22;2467;48.142;11.616;2023-06-14T00:28:03;16.80;49.20
4904;DHT22;2467;48.142;11.616;2023-06-14T00:28:35;16.80;49.20
4904;DHT22;2467;48.142;11.616;2023-06-14T00:29:07;16.80;49.20
4904;DHT22;2467;48.142;11.616;2023-06-14T00:29:40;16.90;49.40
4904;DHT22;2467;48.142;11.616;2023-06-14T00:30:13;16.90;49.40
4904;DHT22;2467;48.142;11.616;2023-06-14T00:30:45;16.80;49.30
4904;DHT22;2467;48.142;11.616;2023-06-14T00:31:18;16.90;49.40
4904;DHT22;2467;48.142;11.616;2023-06-14T00:31:50;16.90;49.40
4904;DHT22;2467;48.142;11.616;2023-06-14T00:32:22;16.90;49.50
4904;DHT22;2467;48.142;11.616;2023-06-14T00:32:57;16.90;49.50
4904;DHT22;2467;48.142;11.616;2023-06-14T00:33:29;16.90;49.50
4904;DHT22;2467;48.142;11.616;2023-06-14T00:34:02;16.90;49.50
4904;DHT22;2467;48.142;11.616;2023-06-14T00:34:34;16.90;49.60
4904;DHT22;2467;48.142;11.616;2023-06-14T00:35:06;16.90;49.60
4904;DHT22;2467;48.142;11.616;2023-06-14T00:35:39;16.90;49.70
4904;DHT22;2467;48.142;11.616;2023-06-14T00:36:12;16.90;49.70
4904;DHT22;2467;48.142;11.616;2023-06-14T00:36:44;16.90;49.70
4904;DHT22;2467;48.142;11.616;2023-06-14T00:37:16;16.90;49.80
4904;DHT22;2467;48.142;11.616;2023-06-14T00:37:48;16.90;49.80
4904;DHT22;2467;48.142;11.616;2023-06-14T00:38:22;16.90;49.90
4904;DHT22;2467;48.142;11.616;2023-06-14T00:38:54;16.90;49.90
4904;DHT22;2467;48.142;11.616;2023-06-14T00:39:26;16.90;50.00
4904;DHT22;2467;48.142;11.616;2023-06-14T00:39:59;16.80;49.90
4904;DHT22;2467;48.142;11.616;2023-06-14T00:40:31;16.80;49.90
4904;DHT22;2467;48.142;11.616;2023-06-14T00:41:03;16.80;50.00
4904;DHT22;2467;48.142;11.616;2023-06-14T00:41:35;16.80;50.00
4904;DHT22;2467;48.142;11.616;2023-06-14T00:42:08;16.80;50.10
4904;DHT22;2467;48.142;11.616;2023-06-14T00:42:40;16.80;50.20
4904;DHT22;2467;48.142;11.616;2023-06-14T00:43:12;16.70;50.20
4904;DHT22;2467;48.142;11.616;2023-06-14T00:43:45;16.70;50.30
4904;DHT22;2467;48.142;11.616;2023-06-14T00:44:18;16.70;51.10
4904;DHT22;2467;48.142;11.616;2023-06-14T00:44:49;16.70;50.50
4904;DHT22;2467;48.142;11.616;2023-06-14T00:45:22;16.70;50.60
4904;DHT22;2467;48.142;11.616;2023-06-14T00:45:54;16.70;50.70
4904;DHT22;2467;48.142;11.616;2023-06-14T00:46:26;16.70;50.90
4904;DHT22;2467;48.142;11.616;2023-06-14T00:46:59;16.60;51.00
4904;DHT22;2467;48.142;11.616;2023-06-14T00:47:32;16.60;51.10
4904;DHT22;2467;48.142;11.616;2023-06-14T00:48:04;16.60;51.20
4904;DHT22;2467;48.142;11.616;2023-06-14T00:48:39;16.60;51.30
4904;DHT22;2467;48.142;11.616;2023-06-14T00:49:12;16.60;51.30
4904;DHT22;2467;48.142;11.616;2023-06-14T00:49:47;16.60;51.40
4904;DHT22;2467;48.142;11.616;2023-06-14T00:50:20;16.60;51.40
4904;DHT22;2467;48.142;11.616;2023-06-14T00:50:55;16.60;51.40
4904;DHT22;2467;48.142;11.616;2023-06-14T00:51:27;16.60;51.40
4904;DHT22;2467;48.142;11.616;2023-06-14T00:51:59;16.60;51.40
4904;DHT22;2467;48.142;11.616;2023-06-14T00:52:33;16.60;51.40
4904;DHT22;2467;48.142;11.616;2023-06-14T00:53:06;16.60;51.40
4904;DHT22;2467;48.142;11.616;2023-06-14T00:53:40;16.60;51.50
4904;DHT22;2467;48.142;11.616;2023-06-14T00:54:17;16.60;51.50
4904;DHT22;2467;48.142;11.616;2023-06-14T00:54:49;16.60;51.50
4904;DHT22;2467;48.142;11.616;2023-06-14T00:55:21;16.60;51.50
4904;DHT22;2467;48.142;11.616;2023-06-14T00:55:54;16.60;51.60
4904;DHT22;2467;48.142;11.616;2023-06-14T00:56:27;16.50;51.60
4904;DHT22;2467;48.142;11.616;2023-06-14T00:56:59;16.50;51.70
4904;DHT22;2467;48.142;11.616;2023-06-14T00:57:32;16.50;51.70
4904;DHT22;2467;48.142;11.616;2023-06-14T00:58:04;16.50;51.80
4904;DHT22;2467;48.142;11.616;2023-06-14T00:58:36;16.50;51.80
4904;DHT22;2467;48.142;11.616;2023-06-14T00:59:09;16.60;52.00
4904;DHT22;2467;48.142;11.616;2023-06-14T00:59:45;16.60;52.00
4904;DHT22;2467;48.142;11.616;2023-06-14T01:00:18;16.60;52.00
4904;DHT22;2467;48.142;11.616;2023-06-14T01:00:50;16.60;52.00
4904;DHT22;2467;48.142;11.616;2023-06-14T01:01:23;16.60;52.10
4904;DHT22;2467;48.142;11.616;2023-06-14T01:01:55;16.60;52.10
4904;DHT22;2467;48.142;11.616;2023-06-14T01:02:28;16.60;52.20
4904;DHT22;2467;48.142;11.616;2023-06-14T01:03:00;16.60;52.30
4904;DHT22;2467;48.142;11.616;2023-06-14T01:03:34;16.60;52.40
4904;DHT22;2467;48.142;11.616;2023-06-14T01:04:07;16.60;52.50
4904;DHT22;2467;48.142;11.616;2023-06-14T01:04:39;16.60;52.50
4904;DHT22;2467;48.142;11.616;2023-06-14T01:05:14;16.60;52.60
4904;DHT22;2467;48.142;11.616;2023-06-14T01:05:47;16.60;52.80
4904;DHT22;2467;48.142;11.616;2023-06-14T01:06:27;16.60;52.90
4904;DHT22;2467;48.142;11.616;2023-06-14T01:07:06;16.50;52.90
4904;DHT22;2467;48.142;11.616;2023-06-14T01:08:00;16.50;53.00
4904;DHT22;2467;48.142;11.616;2023-06-14T01:08:43;16.50;53.10
4904;DHT22;2467;48.142;11.616;2023-06-14T01:09:25;16.50;53.20
4904;DHT22;2467;48.142;11.616;2023-06-14T01:10:12;16.40;53.20
4904;DHT22;2467;48.142;11.616;2023-06-14T01:10:56;16.40;53.30
4904;DHT22;2467;48.142;11.616;2023-06-14T01:11:38;16.40;53.30
4904;DHT22;2467;48.142;11.616;2023-06-14T01:12:15;16.40;53.40
4904;DHT22;2467;48.142;11.616;2023-06-14T01:12:58;16.40;53.50
4904;DHT22;2467;48.142;11.616;2023-06-14T01:13:35;16.50;53.70
4904;DHT22;2467;48.142;11.616;2023-06-14T01:14:07;16.40;53.70
4904;DHT22;2467;48.142;11.616;2023-06-14T01:14:42;16.30;53.60
4904;DHT22;2467;48.142;11.616;2023-06-14T01:15:15;16.30;53.80
4904;DHT22;2467;48.142;11.616;2023-06-14T01:15:48;16.30;53.90
4904;DHT22;2467;48.142;11.616;2023-06-14T01:16:23;16.30;54.00
4904;DHT22;2467;48.142;11.616;2023-06-14T01:16:56;16.30;54.10
4904;DHT22;2467;48.142;11.616;2023-06-14T01:17:29;16.30;54.20
4904;DHT22;2467;48.142;11.616;2023-06-14T01:18:04;16.30;54.20
4904;DHT22;2467;48.142;11.616;2023-06-14T01:18:37;16.30;54.30
4904;DHT22;2467;48.142;11.616;2023-06-14T01:19:12;16.30;54.30
4904;DHT22;2467;48.142;11.616;2023-06-14T01:19:45;16.30;54.40
4904;DHT22;2467;48.142;11.616;2023-06-14T01:20:19;16.30;54.50
4904;DHT22;2467;48.142;11.616;2023-06-14T01:20:52;16.30;54.70
4904;DHT22;2467;48.142;11.616;2023-06-14T01:21:26;16.30;54.80
4904;DHT22;2467;48.142;11.616;2023-06-14T01:22:00;16.30;54.90
4904;DHT22;2467;48.142;11.616;2023-06-14T01:22:33;16.30;55.10
4904;DHT22;2467;48.142;11.616;2023-06-14T01:23:06;16.20;55.20
4904;DHT22;2467;48.142;11.616;2023-06-14T01:23:39;16.20;55.30
4904;DHT22;2467;48.142;11.616;2023-06-14T01:24:11;16.20;55.50
4904;DHT22;2467;48.142;11.616;2023-06-14T01:24:43;16.20;55.60
4904;DHT22;2467;48.142;11.616;2023-06-14T01:25:16;16.20;55.70
4904;DHT22;2467;48.142;11.616;2023-06-14T01:25:49;16.20;55.70
4904;DHT22;2467;48.142;11.616;2023-06-14T01:26:25;16.20;55.80
4904;DHT22;2467;48.142;11.616;2023-06-14T01:27:02;16.20;55.80
4904;DHT22;2467;48.142;11.616;2023-06-14T01:27:34;16.20;55.90
4904;DHT22;2467;48.142;11.616;2023-06-14T01:28:06;16.20;56.00
4904;DHT22;2467;48.142;11.616;2023-06-14T01:28:42;16.30;56.10
4904;DHT22;2467;48.142;11.616;2023-06-14T01:29:20;16.20;56.10
4904;DHT22;2467;48.142;11.616;2023-06-14T01:29:54;16.20;56.20
4904;DHT22;2467;48.142;11.616;2023-06-14T01:30:29;16.20;56.30
4904;DHT22;2467;48.142;11.616;2023-06-14T01:31:03;16.20;56.40
4904;DHT22;2467;48.142;11.616;2023-06-14T01:31:35;16.20;56.50
4904;DHT22;2467;48.142;11.616;2023-06-14T01:32:13;16.20;56.50
4904;DHT22;2467;48.142;11.616;2023-06-14T01:32:46;16.10;56.50
4904;DHT22;2467;48.142;11.616;2023-06-14T01:33:20;16.20;56.70
4904;DHT22;2467;48.142;11.616;2023-06-14T01:33:53;16.30;56.80
4904;DHT22;2467;48.142;11.616;2023-06-14T01:34:25;16.20;56.80
4904;DHT22;2467;48.142;11.616;2023-06-14T01:34:57;16.20;56.80
4904;DHT22;2467;48.142;11.616;2023-06-14T01:35:30;16.20;56.80
4904;DHT22;2467;48.142;11.616;2023-06-14T01:36:03;16.20;56.80
4904;DHT22;2467;48.142;11.616;2023-06-14T01:36:40;16.20;56.80
4904;DHT22;2467;48.142;11.616;2023-06-14T01:37:13;16.20;56.80
4904;DHT22;2467;48.142;11.616;2023-06-14T01:37:47;16.20;56.90
4904;DHT22;2467;48.142;11.616;2023-06-14T01:38:23;16.20;57.00
4904;DHT22;2467;48.142;11.616;2023-06-14T01:38:58;16.20;57.20
4904;DHT22;2467;48.142;11.616;2023-06-14T01:39:31;16.10;57.30
4904;DHT22;2467;48.142;11.616;2023-06-14T01:40:05;16.10;57.50
4904;DHT22;2467;48.142;11.616;2023-06-14T01:40:39;16.10;57.50
4904;DHT22;2467;48.142;11.616;2023-06-14T01:41:11;16.10;57.50
4904;DHT22;2467;48.142;11.616;2023-06-14T01:41:44;16.10;57.60
4904;DHT22;2467;48.142;11.616;2023-06-14T01:42:18;16.10;57.60
4904;DHT22;2467;48.142;11.616;2023-06-14T01:42:51;16.20;57.70
4904;DHT22;2467;48.142;11.616;2023-06-14T01:43:23;16.10;57.60
4904;DHT22;2467;48.142;11.616;2023-06-14T01:43:56;16.10;57.60
4904;DHT22;2467;48.142;11.616;2023-06-14T01:44:31;16.10;57.50
4904;DHT22;2467;48.142;11.616;2023-06-14T01:45:05;16.10;57.60
4904;DHT22;2467;48.142;11.616;2023-06-14T01:45:38;16.00;57.50
4904;DHT22;2467;48.142;11.616;2023-06-14T01:46:11;16.00;57.60
4904;DHT22;2467;48.142;11.616;2023-06-14T01:46:45;16.10;57.70
4904;DHT22;2467;48.142;11.616;2023-06-14T01:47:17;16.00;57.70
4904;DHT22;2467;48.142;11.616;2023-06-14T01:47:49;16.00;57.70
4904;DHT22;2467;48.142;11.616;2023-06-14T01:48:23;16.00;57.80
4904;DHT22;2467;48.142;11.616;2023-06-14T01:48:55;16.00;57.80
4904;DHT22;2467;48.142;11.616;2023-06-14T01:49:27;16.00;58.00
4904;DHT22;2467;48.142;11.616;2023-06-14T01:50:01;16.00;58.20
4904;DHT22;2467;48.142;11.616;2023-06-14T01:50:33;15.90;58.30
4904;DHT22;2467;48.142;11.616;2023-06-14T01:51:05;16.00;58.60
4904;DHT22;2467;48.142;11.616;2023-06-14T01:51:38;15.90;58.60
4904;DHT22;2467;48.142;11.616;2023-06-14T01:52:10;15.90;58.80
4904;DHT22;2467;48.142;11.616;2023-06-14T01:52:42;15.90;58.90
4904;DHT22;2467;48.142;11.616;2023-06-14T01:53:15;15.90;59.00
4904;DHT22;2467;48.142;11.616;2023-06-14T01:53:49;15.90;59.10
4904;DHT22;2467;48.142;11.616;2023-06-14T01:54:20;15.90;59.20
4904;DHT22;2467;48.142;11.616;2023-06-14T01:54:54;15.90;59.20
4904;DHT22;2467;48.142;11.616;2023-06-14T01:55:26;15.90;59.40
4904;DHT22;2467;48.142;11.616;2023-06-14T01:55:58;15.80;59.50
4904;DHT22;2467;48.142;11.616;2023-06-14T01:56:31;15.80;59.60
4904;DHT22;2467;48.142;11.616;2023-06-14T01:57:04;15.80;59.70
4904;DHT22;2467;48.142;11.616;2023-06-14T01:57:38;15.80;59.80
4904;DHT22;2467;48.142;11.616;2023-06-14T01:58:10;15.70;59.80
4904;DHT22;2467;48.142;11.616;2023-06-14T01:58:43;15.70;59.90
4904;DHT22;2467;48.142;11.616;2023-06-14T01:59:15;15.70;60.00
4904;DHT22;2467;48.142;11.616;2023-06-14T01:59:47;15.70;60.00
4904;DHT22;2467;48.142;11.616;2023-06-14T02:00:21;15.70;60.20
4904;DHT22;2467;48.142;11.616;2023-06-14T02:00:53;15.70;60.30
4904;DHT22;2467;48.142;11.616;2023-06-14T02:01:27;15.70;60.40
4904;DHT22;2467;48.142;11.616;2023-06-14T02:02:01;15.70;60.60
4904;DHT22;2467;48.142;11.616;2023-06-14T02:02:33;15.80;60.90
4904;DHT22;2467;48.142;11.616;2023-06-14T02:03:05;15.70;60.90
4904;DHT22;2467;48.142;11.616;2023-06-14T02:03:38;15.70;61.30
4904;DHT22;2467;48.142;11.616;2023-06-14T02:04:10;15.70;61.60
4904;DHT22;2467;48.142;11.616;2023-06-14T02:04:42;15.70;61.80
4904;DHT22;2467;48.142;11.616;2023-06-14T02:05:14;15.70;62.00
4904;DHT22;2467;48.142;11.616;2023-06-14T02:05:50;15.70;62.20
4904;DHT22;2467;48.142;11.616;2023-06-14T02:06:23;15.70;62.20
4904;DHT22;2467;48.142;11.616;2023-06-14T02:06:55;15.70;62.30
4904;DHT22;2467;48.142;11.616;2023-06-14T02:07:28;15.80;62.30
4904;DHT22;2467;48.142;11.616;2023-06-14T02:08:00;15.70;62.30
4904;DHT22;2467;48.142;11.616;2023-06-14T02:08:32;15.80;62.30
4904;DHT22;2467;48.142;11.616;2023-06-14T02:09:06;15.80;62.40
4904;DHT22;2467;48.142;11.616;2023-06-14T02:09:38;15.80;62.30
4904;DHT22;2467;48.142;11.616;2023-06-14T02:10:10;15.80;62.40
4904;DHT22;2467;48.142;11.616;2023-06-14T02:10:44;15.90;62.50
4904;DHT22;2467;48.142;11.616;2023-06-14T02:11:16;15.80;62.40
4904;DHT22;2467;48.142;11.616;2023-06-14T02:11:48;15.80;62.50
4904;DHT22;2467;48.142;11.616;2023-06-14T02:12:21;15.80;62.50
4904;DHT22;2467;48.142;11.616;2023-06-14T02:12:53;15.80;62.60
4904;DHT22;2467;48.142;11.616;2023-06-14T02:13:25;15.80;62.60
4904;DHT22;2467;48.142;11.616;2023-06-14T02:13:58;15.80;62.60
4904;DHT22;2467;48.142;11.616;2023-06-14T02:14:31;15.80;62.70
4904;DHT22;2467;48.142;11.616;2023-06-14T02:15:04;15.80;62.90
4904;DHT22;2467;48.142;11.616;2023-06-14T02:15:37;15.80;62.90
4904;DHT22;2467;48.142;11.616;2023-06-14T02:16:09;15.80;63.00
4904;DHT22;2467;48.142;11.616;2023-06-14T02:16:42;15.80;63.20
4904;DHT22;2467;48.142;11.616;2023-06-14T02:17:20;15.80;63.20
4904;DHT22;2467;48.142;11.616;2023-06-14T02:17:52;15.80;63.20
4904;DHT22;2467;48.142;11.616;2023-06-14T02:18:25;15.80;63.20
4904;DHT22;2467;48.142;11.616;2023-06-14T02:18:57;15.90;63.30
4904;DHT22;2467;48.142;11.616;2023-06-14T02:19:29;15.80;63.20
4904;DHT22;2467;48.142;11.616;2023-06-14T02:20:03;15.80;63.20
4904;DHT22;2467;48.142;11.616;2023-06-14T02:20:36;15.80;63.20
4904;DHT22;2467;48.142;11.616;2023-06-14T02:21:08;15.80;63.20
4904;DHT22;2467;48.142;11.616;2023-06-14T02:21:41;15.80;63.20
4904;DHT22;2467;48.142;11.616;2023-06-14T02:22:13;15.80;63.20
4904;DHT22;2467;48.142;11.616;2023-06-14T02:22:46;15.90;63.30
4904;DHT22;2467;48.142;11.616;2023-06-14T02:23:19;15.80;64.10
4904;DHT22;2467;48.142;11.616;2023-06-14T02:23:51;15.80;63.50
4904;DHT22;2467;48.142;11.616;2023-06-14T02:24:25;15.80;63.60
4904;DHT22;2467;48.142;11.616;2023-06-14T02:24:58;15.70;63.50
4904;DHT22;2467;48.142;11.616;2023-06-14T02:25:33;15.70;63.50
4904;DHT22;2467;48.142;11.616;2023-06-14T02:26:06;15.70;64.10
4904;DHT22;2467;48.142;11.616;2023-06-14T02:26:39;15.70;63.80
4904;DHT22;2467;48.142;11.616;2023-06-14T02:27:11;15.70;63.90
4904;DHT22;2467;48.142;11.616;2023-06-14T02:27:43;15.70;64.00
4904;DHT22;2467;48.142;11.616;2023-06-14T02:28:16;15.60;64.10
4904;DHT22;2467;48.142;11.616;2023-06-14T02:28:48;15.60;64.10
4904;DHT22;2467;48.142;11.616;2023-06-14T02:29:20;15.60;64.10
4904;DHT22;2467;48.142;11.616;2023-06-14T02:29:53;15.60;64.00
4904;DHT22;2467;48.142;11.616;2023-06-14T02:30:24;15.50;63.90
4904;DHT22;2467;48.142;11.616;2023-06-14T02:30:56;15.60;63.90
4904;DHT22;2467;48.142;11.616;2023-06-14T02:31:29;15.60;63.70
4904;DHT22;2467;48.142;11.616;2023-06-14T02:32:01;15.60;63.60
4904;DHT22;2467;48.142;11.616;2023-06-14T02:32:34;15.60;63.50
4904;DHT22;2467;48.142;11.616;2023-06-14T02:33:07;15.60;63.30
4904;DHT22;2467;48.142;11.616;2023-06-14T02:33:43;15.60;63.10
4904;DHT22;2467;48.142;11.616;2023-06-14T02:34:15;15.60;63.70
4904;DHT22;2467;48.142;11.616;2023-06-14T02:34:48;15.60;63.00
4904;DHT22;2467;48.142;11.616;2023-06-14T02:35:22;15.60;62.90
4904;DHT22;2467;48.142;11.616;2023-06-14T02:35:56;15.60;62.90
4904;DHT22;2467;48.142;11.616;2023-06-14T02:36:28;15.60;62.80
4904;DHT22;2467;48.142;11.616;2023-06-14T02:37:02;15.70;62.80
4904;DHT22;2467;48.142;11.616;2023-06-14T02:37:34;15.70;62.70
4904;DHT22;2467;48.142;11.616;2023-06-14T02:38:06;15.70;62.60
4904;DHT22;2467;48.142;11.616;2023-06-14T02:38:39;15.60;62.30
4904;DHT22;2467;48.142;11.616;2023-06-14T02:39:12;15.60;62.30
4904;DHT22;2467;48.142;11.616;2023-06-14T02:39:46;15.70;62.30
4904;DHT22;2467;48.142;11.616;2023-06-14T02:40:18;15.70;62.30
4904;DHT22;2467;48.142;11.616;2023-06-14T02:40:49;15.70;62.20
4904;DHT22;2467;48.142;11.616;2023-06-14T02:41:22;15.70;62.10
4904;DHT22;2467;48.142;11.616;2023-06-14T02:41:54;15.70;62.10
4904;DHT22;2467;48.142;11.616;2023-06-14T02:42:26;15.70;62.00
4904;DHT22;2467;48.142;11.616;2023-06-14T02:42:59;15.70;62.00
4904;DHT22;2467;48.142;11.616;2023-06-14T02:43:31;15.70;61.90
4904;DHT22;2467;48.142;11.616;2023-06-14T02:44:03;15.70;61.90
4904;DHT22;2467;48.142;11.616;2023-06-14T02:44:36;15.70;61.80
4904;DHT22;2467;48.142;11.616;2023-06-14T02:45:09;15.70;61.80
4904;DHT22;2467;48.142;11.616;2023-06-14T02:45:41;15.70;61.70
4904;DHT22;2467;48.142;11.616;2023-06-14T02:46:13;15.70;61.70
4904;DHT22;2467;48.142;11.616;2023-06-14T02:46:46;15.70;61.70
4904;DHT22;2467;48.142;11.616;2023-06-14T02:47:18;15.70;61.80
4904;DHT22;2467;48.142;11.616;2023-06-14T02:47:51;15.70;61.90
4904;DHT22;2467;48.142;11.616;2023-06-14T02:48:23;15.60;61.80
4904;DHT22;2467;48.142;11.616;2023-06-14T02:48:55;15.60;61.80
4904;DHT22;2467;48.142;11.616;2023-06-14T02:49:28;15.60;61.80
4904;DHT22;2467;48.142;11.616;2023-06-14T02:50:01;15.60;61.80
4904;DHT22;2467;48.142;11.616;2023-06-14T02:50:33;15.60;61.90
4904;DHT22;2467;48.142;11.616;2023-06-14T02:51:06;15.60;61.90
4904;DHT22;2467;48.142;11.616;2023-06-14T02:51:40;15.60;62.00
4904;DHT22;2467;48.142;11.616;2023-06-14T02:52:12;15.50;61.90
4904;DHT22;2467;48.142;11.616;2023-06-14T02:52:44;15.50;61.90
4904;DHT22;2467;48.142;11.616;2023-06-14T02:53:17;15.50;62.00
4904;DHT22;2467;48.142;11.616;2023-06-14T02:53:48;15.50;62.10
4904;DHT22;2467;48.142;11.616;2023-06-14T02:54:22;15.50;61.90
4904;DHT22;2467;48.142;11.616;2023-06-14T02:54:55;15.40;61.60
4904;DHT22;2467;48.142;11.616;2023-06-14T02:55:27;15.40;61.50
4904;DHT22;2467;48.142;11.616;2023-06-14T02:56:00;15.40;61.30
4904;DHT22;2467;48.142;11.616;2023-06-14T02:56:32;15.40;61.30
4904;DHT22;2467;48.142;11.616;2023-06-14T02:57:05;15.30;61.30
4904;DHT22;2467;48.142;11.616;2023-06-14T02:57:38;15.30;61.40
4904;DHT22;2467;48.142;11.616;2023-06-14T02:58:10;15.30;61.30
4904;DHT22;2467;48.142;11.616;2023-06-14T02:58:42;15.30;62.00
4904;DHT22;2467;48.142;11.616;2023-06-14T02:59:15;15.30;61.20
4904;DHT22;2467;48.142;11.616;2023-06-14T02:59:48;15.40;61.30
4904;DHT22;2467;48.142;11.616;2023-06-14T03:00:20;15.40;61.20
4904;DHT22;2467;48.142;11.616;2023-06-14T03:00:54;15.40;61.20
4904;DHT22;2467;48.142;11.616;2023-06-14T03:01:27;15.40;61.10
4904;DHT22;2467;48.142;11.616;2023-06-14T03:02:06;15.40;61.10
4904;DHT22;2467;48.142;11.616;2023-06-14T03:02:39;15.40;61.00
4904;DHT22;2467;48.142;11.616;2023-06-14T03:03:11;15.40;61.00
4904;DHT22;2467;48.142;11.616;2023-06-14T03:03:46;15.40;61.00
4904;DHT22;2467;48.142;11.616;2023-06-14T03:04:19;15.40;61.10
4904;DHT22;2467;48.142;11.616;2023-06-14T03:04:52;15.40;61.20
4904;DHT22;2467;48.142;11.616;2023-06-14T03:05:24;15.40;61.40
4904;DHT22;2467;48.142;11.616;2023-06-14T03:05:59;15.40;61.50
4904;DHT22;2467;48.142;11.616;2023-06-14T03:06:36;15.40;61.60
4904;DHT22;2467;48.142;11.616;2023-06-14T03:07:08;15.40;61.60
4904;DHT22;2467;48.142;11.616;2023-06-14T03:07:41;15.40;61.60
4904;DHT22;2467;48.142;11.616;2023-06-14T03:08:17;15.40;61.80
4904;DHT22;2467;48.142;11.616;2023-06-14T03:08:51;15.40;62.00
4904;DHT22;2467;48.142;11.616;2023-06-14T03:09:26;15.30;62.00
4904;DHT22;2467;48.142;11.616;2023-06-14T03:10:00;15.30;62.10
4904;DHT22;2467;48.142;11.616;2023-06-14T03:10:33;15.40;62.50
4904;DHT22;2467;48.142;11.616;2023-06-14T03:11:05;15.30;62.60
4904;DHT22;2467;48.142;11.616;2023-06-14T03:11:37;15.40;62.90
4904;DHT22;2467;48.142;11.616;2023-06-14T03:12:10;15.40;63.00
4904;DHT22;2467;48.142;11.616;2023-06-14T03:12:43;15.40;63.10
4904;DHT22;2467;48.142;11.616;2023-06-14T03:13:16;15.30;63.10
4904;DHT22;2467;48.142;11.616;2023-06-14T03:13:47;15.40;63.20
4904;DHT22;2467;48.142;11.616;2023-06-14T03:14:22;15.40;63.30
4904;DHT22;2467;48.142;11.616;2023-06-14T03:14:54;15.30;63.30
4904;DHT22;2467;48.142;11.616;2023-06-14T03:15:28;15.30;63.50
4904;DHT22;2467;48.142;11.616;2023-06-14T03:16:03;15.30;63.50
4904;DHT22;2467;48.142;11.616;2023-06-14T03:16:35;15.30;63.50
4904;DHT22;2467;48.142;11.616;2023-06-14T03:17:08;15.30;63.70
4904;DHT22;2467;48.142;11.616;2023-06-14T03:17:42;15.30;63.70
4904;DHT22;2467;48.142;11.616;2023-06-14T03:18:17;15.30;63.90
4904;DHT22;2467;48.142;11.616;2023-06-14T03:18:49;15.30;64.00
4904;DHT22;2467;48.142;11.616;2023-06-14T03:19:22;15.20;64.10
4904;DHT22;2467;48.142;11.616;2023-06-14T03:19:55;15.20;64.30
4904;DHT22;2467;48.142;11.616;2023-06-14T03:20:27;15.20;64.40
4904;DHT22;2467;48.142;11.616;2023-06-14T03:21:00;15.20;64.50
4904;DHT22;2467;48.142;11.616;2023-06-14T03:21:33;15.20;64.50
4904;DHT22;2467;48.142;11.616;2023-06-14T03:22:06;15.20;64.50
4904;DHT22;2467;48.142;11.616;2023-06-14T03:22:39;15.20;64.70
4904;DHT22;2467;48.142;11.616;2023-06-14T03:23:12;15.20;65.50
4904;DHT22;2467;48.142;11.616;2023-06-14T03:23:44;15.20;64.90
4904;DHT22;2467;48.142;11.616;2023-06-14T03:24:16;15.20;65.20
4904;DHT22;2467;48.142;11.616;2023-06-14T03:24:49;15.20;65.50
4904;DHT22;2467;48.142;11.616;2023-06-14T03:25:23;15.20;65.60
4904;DHT22;2467;48.142;11.616;2023-06-14T03:25:55;15.20;65.70
4904;DHT22;2467;48.142;11.616;2023-06-14T03:26:28;15.20;65.80
4904;DHT22;2467;48.142;11.616;2023-06-14T03:26:59;15.30;66.10
4904;DHT22;2467;48.142;11.616;2023-06-14T03:27:31;15.30;65.80
4904;DHT22;2467;48.142;11.616;2023-06-14T03:28:04;15.20;65.70
4904;DHT22;2467;48.142;11.616;2023-06-14T03:28:37;15.30;65.70
4904;DHT22;2467;48.142;11.616;2023-06-14T03:29:08;15.20;65.60
4904;DHT22;2467;48.142;11.616;2023-06-14T03:29:41;15.20;65.70
4904;DHT22;2467;48.142;11.616;2023-06-14T03:30:14;15.20;65.70
4904;DHT22;2467;48.142;11.616;2023-06-14T03:30:46;15.20;65.80
4904;DHT22;2467;48.142;11.616;2023-06-14T03:31:20;15.30;65.90
4904;DHT22;2467;48.142;11.616;2023-06-14T03:31:57;15.30;66.00
4904;DHT22;2467;48.142;11.616;2023-06-14T03:32:29;15.20;66.00
4904;DHT22;2467;48.142;11.616;2023-06-14T03:33:04;15.30;66.20
4904;DHT22;2467;48.142;11.616;2023-06-14T03:33:36;15.30;66.30